createdAt,value
2022-12-11T00:01:33.860Z,2.20
2022-12-11T00:04:37.047Z,2.83
2022-12-11T00:07:40.464Z,3.50
2022-12-11T00:10:50.121Z,2.75
2022-12-11T00:13:53.333Z,2.40
2022-12-11T00:16:56.583Z,2.53
2022-12-11T00:20:00.042Z,1.90
2022-12-11T00:23:05.521Z,3.40
2022-12-11T00:26:12.635Z,2.95
2022-12-11T00:29:16.135Z,3.40
2022-12-11T00:32:19.413Z,1.80
2022-12-11T00:35:22.622Z,2.38
2022-12-11T00:38:25.952Z,2.10
2022-12-11T00:41:32.939Z,3.00
2022-12-11T00:44:39.170Z,1.95
2022-12-11T00:47:47.638Z,2.08
2022-12-11T00:50:50.881Z,2.28
2022-12-11T00:53:54.110Z,1.90
2022-12-11T00:56:57.309Z,2.47
2022-12-11T01:00:00.456Z,1.70
2022-12-11T01:03:04.136Z,1.85
2022-12-11T01:06:08.529Z,2.15
2022-12-11T01:09:30.486Z,2.60
2022-12-11T01:12:33.752Z,2.78
2022-12-11T01:15:42.985Z,2.00
2022-12-11T01:18:46.277Z,1.75
2022-12-11T01:21:51.929Z,2.00
2022-12-11T01:24:55.254Z,2.50
2022-12-11T01:27:58.381Z,2.33
2022-12-11T01:31:01.698Z,2.87
2022-12-11T01:34:07.327Z,2.05
2022-12-11T01:37:10.564Z,1.42
2022-12-11T01:40:19.760Z,1.48
2022-12-11T01:43:22.971Z,2.60
2022-12-11T01:46:26.880Z,1.38
2022-12-11T01:49:30.433Z,1.20
2022-12-11T01:52:33.836Z,1.63
2022-12-11T01:55:39.229Z,1.23
2022-12-11T01:58:47.461Z,1.20
2022-12-11T02:02:08.827Z,1.20
2022-12-11T02:05:12.964Z,1.10
2022-12-11T02:08:16.739Z,1.20
2022-12-11T02:11:25.753Z,1.90
2022-12-11T02:14:59.924Z,1.47
2022-12-11T02:18:14.734Z,1.17
2022-12-11T02:21:41.765Z,1.60
2022-12-11T02:25:09.834Z,1.48
2022-12-11T02:28:34.588Z,1.07
2022-12-11T02:31:52.957Z,1.05
2022-12-11T02:35:23.913Z,0.50
2022-12-11T02:38:35.145Z,0.40
2022-12-11T02:41:43.196Z,0.40
2022-12-11T02:44:49.091Z,0.40
2022-12-11T02:47:53.197Z,0.60
2022-12-11T02:50:59.645Z,1.07
2022-12-11T02:54:04.245Z,0.80
2022-12-11T02:57:20.857Z,1.17
2022-12-11T03:00:24.433Z,1.25
2022-12-11T03:03:30.057Z,1.50
2022-12-11T03:06:38.248Z,1.75
2022-12-11T03:09:44.141Z,2.10
2022-12-11T03:12:53.654Z,2.83
2022-12-11T03:16:18.229Z,2.78
2022-12-11T03:19:47.640Z,3.88
2022-12-11T03:23:07.266Z,3.90
2022-12-11T03:26:13.656Z,3.73
2022-12-11T03:29:31.572Z,5.75
2022-12-11T03:32:50.388Z,4.95
2022-12-11T03:35:59.378Z,5.35
2022-12-11T03:39:22.785Z,6.30
2022-12-11T03:42:27.586Z,5.82
2022-12-11T03:45:32.385Z,6.25
2022-12-11T03:48:38.173Z,6.07
2022-12-11T03:51:42.320Z,5.80
2022-12-11T03:54:49.593Z,6.85
2022-12-11T03:57:52.775Z,6.45
2022-12-11T04:00:56.130Z,6.60
2022-12-11T04:03:59.272Z,6.72
2022-12-11T04:07:02.569Z,7.90
2022-12-11T04:10:06.381Z,8.23
2022-12-11T04:13:10.656Z,7.77
2022-12-11T04:16:13.879Z,8.55
2022-12-11T04:19:36.364Z,9.20
2022-12-11T04:22:58.367Z,8.25
2022-12-11T04:26:14.125Z,9.30
2022-12-11T04:29:17.393Z,9.15
2022-12-11T04:32:20.708Z,10.18
2022-12-11T04:35:24.465Z,9.60
2022-12-11T04:38:28.130Z,9.52
2022-12-11T04:41:31.402Z,10.30
2022-12-11T04:44:34.824Z,9.82
2022-12-11T04:47:39.270Z,9.33
2022-12-11T04:50:42.545Z,9.77
2022-12-11T04:53:46.381Z,9.25
2022-12-11T04:56:49.621Z,9.40
2022-12-11T04:59:52.968Z,8.77
2022-12-11T05:02:56.199Z,9.43
2022-12-11T05:05:59.374Z,9.43
2022-12-11T05:09:03.324Z,9.57
2022-12-11T05:12:06.617Z,9.18
2022-12-11T05:15:10.522Z,10.45
2022-12-11T05:18:13.853Z,10.03
2022-12-11T05:21:17.179Z,10.40
2022-12-11T05:24:20.484Z,9.80
2022-12-11T05:27:23.941Z,10.80
2022-12-11T05:30:27.694Z,11.60
2022-12-11T05:33:31.707Z,12.10
2022-12-11T05:36:35.137Z,12.68
2022-12-11T05:39:38.832Z,13.43
2022-12-11T05:42:42.079Z,13.43
2022-12-11T05:45:45.329Z,12.55
2022-12-11T05:48:50.668Z,10.20
2022-12-11T05:52:02.651Z,12.80
2022-12-11T05:55:06.159Z,12.10
2022-12-11T05:58:09.301Z,13.07
2022-12-11T06:01:30.726Z,12.48
2022-12-11T06:04:34.569Z,12.45
2022-12-11T06:07:37.741Z,12.77
2022-12-11T06:10:46.909Z,11.97
2022-12-11T06:13:50.128Z,12.43
2022-12-11T06:16:53.316Z,12.15
2022-12-11T06:19:56.588Z,10.88
2022-12-11T06:23:00.293Z,11.77
2022-12-11T06:26:05.034Z,12.23
2022-12-11T06:29:12.494Z,9.52
2022-12-11T06:32:16.072Z,10.18
2022-12-11T06:35:19.425Z,13.05
2022-12-11T06:38:23.173Z,11.00
2022-12-11T06:41:26.322Z,10.65
2022-12-11T06:44:29.548Z,10.67
2022-12-11T06:47:33.352Z,10.60
2022-12-11T06:50:38.697Z,10.70
2022-12-11T06:53:42.321Z,11.18
2022-12-11T06:56:45.498Z,10.67
2022-12-11T06:59:48.809Z,10.73
2022-12-11T07:02:52.194Z,10.85
2022-12-11T07:05:59.632Z,10.90
2022-12-11T07:09:05.883Z,11.55
2022-12-11T07:12:09.563Z,10.85
2022-12-11T07:15:13.301Z,10.82
2022-12-11T07:18:16.893Z,10.13
2022-12-11T07:21:21.239Z,11.18
2022-12-11T07:24:24.548Z,10.77
2022-12-11T07:27:28.416Z,10.57
2022-12-11T07:30:31.790Z,11.57
2022-12-11T07:33:35.292Z,9.95
2022-12-11T07:36:38.552Z,11.23
2022-12-11T07:39:41.992Z,10.15
2022-12-11T07:42:46.409Z,9.85
2022-12-11T07:45:49.762Z,9.93
2022-12-11T07:48:53.129Z,9.90
2022-12-11T07:51:56.940Z,10.68
2022-12-11T07:55:00.252Z,10.23
2022-12-11T07:58:03.697Z,10.65
2022-12-11T08:01:12.235Z,9.43
2022-12-11T08:04:16.168Z,9.23
2022-12-11T08:07:19.448Z,8.93
2022-12-11T08:10:23.056Z,9.07
2022-12-11T08:13:26.331Z,9.27
2022-12-11T08:16:30.198Z,8.20
2022-12-11T08:19:33.618Z,9.82
2022-12-11T08:22:36.793Z,8.03
2022-12-11T08:25:39.963Z,8.10
2022-12-11T08:28:43.890Z,8.60
2022-12-11T08:31:47.110Z,8.53
2022-12-11T08:34:52.527Z,9.27
2022-12-11T08:37:55.732Z,8.70
2022-12-11T08:40:59.106Z,8.50
2022-12-11T08:44:02.348Z,8.80
2022-12-11T08:47:05.656Z,10.18
2022-12-11T08:50:10.538Z,9.18
2022-12-11T08:53:13.733Z,9.43
2022-12-11T08:56:20.070Z,8.35
2022-12-11T08:59:23.477Z,8.82
2022-12-11T09:02:26.750Z,9.55
2022-12-11T09:05:30.313Z,8.93
2022-12-11T09:08:34.010Z,8.55
2022-12-11T09:11:38.016Z,9.60
2022-12-11T09:14:41.220Z,9.03
2022-12-11T09:17:44.578Z,8.95
2022-12-11T09:20:47.869Z,8.68
2022-12-11T09:23:54.922Z,9.15
2022-12-11T09:26:58.160Z,9.33
2022-12-11T09:30:02.161Z,8.75
2022-12-11T09:33:06.016Z,9.57
2022-12-11T09:36:10.366Z,9.32
2022-12-11T09:39:14.919Z,9.45
2022-12-11T09:42:41.056Z,8.73
2022-12-11T09:45:44.480Z,9.05
2022-12-11T09:48:49.329Z,9.83
2022-12-11T09:52:18.533Z,8.85
2022-12-11T09:55:27.453Z,10.20
2022-12-11T09:58:59.403Z,9.45
2022-12-11T10:02:13.918Z,9.23
2022-12-11T10:05:41.802Z,8.40
2022-12-11T10:09:03.839Z,8.18
2022-12-11T10:12:19.948Z,8.10
2022-12-11T10:15:48.674Z,8.30
2022-12-11T10:18:52.253Z,9.15
2022-12-11T10:21:56.702Z,8.55
2022-12-11T10:25:11.248Z,8.32
2022-12-11T10:28:17.347Z,8.75
2022-12-11T10:31:26.267Z,8.02
2022-12-11T10:34:37.773Z,8.73
2022-12-11T10:37:41.045Z,8.98
2022-12-11T10:40:49.731Z,8.52
2022-12-11T10:43:53.875Z,8.45
2022-12-11T10:47:15.576Z,8.80
2022-12-11T10:50:26.227Z,7.53
2022-12-11T10:53:31.322Z,9.20
2022-12-11T10:56:37.567Z,8.82
2022-12-11T10:59:49.326Z,8.90
2022-12-11T11:02:52.659Z,8.90
2022-12-11T11:06:17.468Z,8.25
2022-12-11T11:09:35.932Z,8.63
2022-12-11T11:12:47.574Z,7.85
2022-12-11T11:16:03.055Z,9.07
2022-12-11T11:19:07.215Z,8.88
2022-12-11T11:22:17.033Z,8.90
2022-12-11T11:25:23.234Z,8.98
2022-12-11T11:28:55.832Z,9.10
2022-12-11T11:32:15.379Z,8.80
2022-12-11T11:35:21.281Z,7.88
2022-12-11T11:38:47.904Z,8.82
2022-12-11T11:41:53.856Z,8.48
2022-12-11T11:45:10.240Z,8.07
2022-12-11T11:48:37.541Z,8.20
2022-12-11T11:51:54.685Z,8.70
2022-12-11T11:55:11.761Z,7.88
2022-12-11T11:58:28.068Z,8.70
2022-12-11T12:01:31.581Z,8.43
2022-12-11T12:04:38.493Z,9.20
2022-12-11T12:07:51.716Z,8.07
2022-12-11T12:11:05.637Z,8.20
2022-12-11T12:14:50.628Z,8.20
2022-12-11T12:17:55.718Z,7.90
2022-12-11T12:21:19.817Z,8.55
2022-12-11T12:25:02.889Z,8.48
2022-12-11T12:28:26.565Z,7.82
2022-12-11T12:31:48.575Z,7.25
2022-12-11T12:35:17.002Z,7.85
2022-12-11T12:38:40.316Z,7.32
2022-12-11T12:41:53.888Z,7.23
2022-12-11T12:45:06.349Z,8.55
2022-12-11T12:48:10.448Z,7.70
2022-12-11T12:51:17.730Z,8.35
2022-12-11T12:54:22.759Z,8.13
2022-12-11T12:57:26.009Z,8.43
2022-12-11T13:00:33.081Z,9.05
2022-12-11T13:03:51.017Z,9.18
2022-12-11T13:06:54.893Z,9.25
2022-12-11T13:10:08.083Z,8.02
2022-12-11T13:14:01.994Z,8.30
2022-12-11T13:17:27.166Z,8.87
2022-12-11T13:20:34.311Z,8.82
2022-12-11T13:23:40.282Z,10.13
2022-12-11T13:26:44.355Z,9.75
2022-12-11T13:29:47.688Z,9.30
2022-12-11T13:33:04.560Z,10.10
2022-12-11T13:36:16.736Z,9.73
2022-12-11T13:39:29.327Z,10.98
2022-12-11T13:42:55.708Z,9.57
2022-12-11T13:46:01.785Z,10.07
2022-12-11T13:49:07.925Z,9.82
2022-12-11T13:52:23.636Z,11.00
2022-12-11T13:55:32.646Z,10.85
2022-12-11T13:58:41.076Z,10.63
2022-12-11T14:01:44.347Z,10.57
2022-12-11T14:04:51.738Z,10.80
2022-12-11T14:07:58.689Z,10.38
2022-12-11T14:11:02.440Z,10.25
2022-12-11T14:14:21.235Z,9.40
2022-12-11T14:17:30.761Z,9.25
2022-12-11T14:20:35.349Z,9.00
2022-12-11T14:23:38.668Z,8.00
2022-12-11T14:26:51.696Z,9.27
2022-12-11T14:29:55.346Z,9.55
2022-12-11T14:33:05.902Z,8.47
2022-12-11T14:36:09.901Z,8.50
2022-12-11T14:39:25.661Z,8.00
2022-12-11T14:42:41.087Z,8.45
2022-12-11T14:45:48.624Z,8.20
2022-12-11T14:49:01.312Z,7.85
2022-12-11T14:52:05.469Z,8.15
2022-12-11T14:55:30.721Z,8.20
2022-12-11T14:58:43.341Z,8.75
2022-12-11T15:01:56.858Z,9.70
2022-12-11T15:05:14.224Z,8.35
2022-12-11T15:08:26.122Z,8.13
2022-12-11T15:11:32.807Z,8.52
2022-12-11T15:14:41.793Z,7.97
2022-12-11T15:17:51.103Z,8.97
2022-12-11T15:21:05.206Z,7.95
2022-12-11T15:24:24.929Z,7.03
2022-12-11T15:27:31.239Z,7.07
2022-12-11T15:30:35.927Z,6.00
2022-12-11T15:33:49.956Z,6.35
2022-12-11T15:36:53.456Z,6.93
2022-12-11T15:39:58.288Z,6.13
2022-12-11T15:43:03.435Z,6.43
2022-12-11T15:46:07.439Z,7.90
2022-12-11T15:49:12.952Z,6.18
2022-12-11T15:52:16.800Z,6.40
2022-12-11T15:55:22.363Z,5.93
2022-12-11T15:58:27.371Z,6.13
2022-12-11T16:01:30.957Z,5.83
2022-12-11T16:04:34.258Z,6.70
2022-12-11T16:07:38.395Z,6.28
2022-12-11T16:10:43.613Z,5.22
2022-12-11T16:13:46.918Z,5.57
2022-12-11T16:16:50.324Z,6.15
2022-12-11T16:19:54.327Z,7.38
2022-12-11T16:22:58.549Z,7.47
2022-12-11T16:26:07.809Z,7.07
2022-12-11T16:29:11.280Z,6.15
2022-12-11T16:32:14.853Z,6.80
2022-12-11T16:35:18.952Z,6.70
2022-12-11T16:38:22.151Z,6.60
2022-12-11T16:41:25.491Z,6.63
2022-12-11T16:44:28.756Z,7.53
2022-12-11T16:47:32.205Z,6.20
2022-12-11T16:50:40.664Z,7.50
2022-12-11T16:53:43.885Z,7.07
2022-12-11T16:56:47.447Z,6.57
2022-12-11T16:59:51.234Z,6.32
2022-12-11T17:02:54.599Z,6.22
2022-12-11T17:06:00.140Z,6.73
2022-12-11T17:09:03.588Z,7.32
2022-12-11T17:12:08.371Z,6.22
2022-12-11T17:15:12.592Z,7.30
2022-12-11T17:18:16.340Z,6.97
2022-12-11T17:21:22.249Z,8.18
2022-12-11T17:24:25.781Z,7.05
2022-12-11T17:27:29.049Z,7.83
2022-12-11T17:30:33.505Z,7.57
2022-12-11T17:33:37.223Z,8.40
2022-12-11T17:36:40.628Z,7.75
2022-12-11T17:39:44.130Z,11.57
2022-12-11T17:42:47.988Z,8.02
2022-12-11T17:45:52.694Z,7.72
2022-12-11T17:48:56.780Z,7.63
2022-12-11T17:52:00.202Z,7.43
2022-12-11T17:55:06.936Z,7.15
2022-12-11T17:58:14.725Z,8.60
2022-12-11T18:01:18.303Z,7.57
2022-12-11T18:04:21.816Z,8.00
2022-12-11T18:07:25.387Z,8.02
2022-12-11T18:10:29.047Z,8.15
2022-12-11T18:13:32.409Z,8.73
2022-12-11T18:16:38.176Z,7.88
2022-12-11T18:19:45.999Z,8.63
2022-12-11T18:22:51.035Z,8.80
2022-12-11T18:25:54.836Z,7.68
2022-12-11T18:28:58.390Z,8.18
2022-12-11T18:32:02.328Z,8.02
2022-12-11T18:35:06.122Z,9.52
2022-12-11T18:38:09.657Z,8.63
2022-12-11T18:41:14.704Z,8.93
2022-12-11T18:44:22.582Z,9.38
2022-12-11T18:47:26.303Z,8.02
2022-12-11T18:50:31.994Z,8.57
2022-12-11T18:53:36.048Z,9.27
2022-12-11T18:56:41.736Z,8.07
2022-12-11T18:59:45.204Z,8.43
2022-12-11T19:02:52.648Z,8.10
2022-12-11T19:05:56.093Z,8.07
2022-12-11T19:09:00.372Z,9.13
2022-12-11T19:12:03.935Z,8.67
2022-12-11T19:15:07.728Z,8.75
2022-12-11T19:18:11.387Z,8.13
2022-12-11T19:21:16.487Z,8.23
2022-12-11T19:24:22.958Z,9.80
2022-12-11T19:27:26.713Z,9.68
2022-12-11T19:30:30.144Z,9.90
2022-12-11T19:33:33.668Z,8.57
2022-12-11T19:36:37.419Z,10.02
2022-12-11T19:39:41.034Z,9.73
2022-12-11T19:42:44.567Z,8.70
2022-12-11T19:45:48.339Z,8.40
2022-12-11T19:48:54.220Z,8.80
2022-12-11T19:51:57.725Z,9.82
2022-12-11T19:55:04.995Z,7.95
2022-12-11T19:58:08.433Z,9.48
2022-12-11T20:01:22.448Z,9.32
2022-12-11T20:04:26.176Z,7.73
2022-12-11T20:07:30.935Z,8.50
2022-12-11T20:10:36.110Z,8.00
2022-12-11T20:13:41.121Z,7.67
2022-12-11T20:17:10.043Z,9.13
2022-12-11T20:20:12.525Z,8.07
2022-12-11T20:23:16.300Z,8.38
2022-12-11T20:26:23.319Z,7.40
2022-12-11T20:29:27.039Z,7.65
2022-12-11T20:32:30.444Z,6.93
2022-12-11T20:35:33.844Z,8.20
2022-12-11T20:38:37.972Z,7.68
2022-12-11T20:41:41.812Z,7.88
2022-12-11T20:44:49.251Z,7.80
2022-12-11T20:47:53.069Z,8.35
2022-12-11T20:51:01.067Z,8.40
2022-12-11T20:54:04.628Z,8.40
2022-12-11T20:57:08.035Z,8.40
2022-12-11T21:00:12.231Z,9.55
2022-12-11T21:03:15.908Z,8.75
2022-12-11T21:06:30.088Z,8.52
2022-12-11T21:09:36.637Z,8.10
2022-12-11T21:12:40.242Z,8.55
2022-12-11T21:15:44.108Z,7.78
2022-12-11T21:18:48.325Z,7.93
2022-12-11T21:21:51.678Z,8.20
2022-12-11T21:24:55.205Z,7.47
2022-12-11T21:27:58.664Z,7.30
2022-12-11T21:31:04.559Z,7.80
2022-12-11T21:34:08.593Z,7.80
2022-12-11T21:37:11.762Z,8.50
2022-12-11T21:40:18.951Z,7.43
2022-12-11T21:43:23.233Z,8.40
2022-12-11T21:46:28.363Z,7.40
2022-12-11T21:49:31.732Z,7.20
2022-12-11T21:52:36.730Z,5.78
2022-12-11T21:55:42.247Z,6.97
2022-12-11T21:58:46.621Z,7.20
2022-12-11T22:01:51.398Z,6.93
2022-12-11T22:04:55.217Z,6.25
2022-12-11T22:07:58.509Z,6.15
2022-12-11T22:11:02.220Z,6.00
2022-12-11T22:14:06.911Z,6.28
2022-12-11T22:17:10.163Z,6.93
2022-12-11T22:20:13.404Z,6.20
2022-12-11T22:23:16.542Z,6.28
2022-12-11T22:26:23.592Z,5.75
2022-12-11T22:29:26.992Z,6.33
2022-12-11T22:32:30.341Z,5.75
2022-12-11T22:35:33.595Z,6.38
2022-12-11T22:38:37.153Z,5.78
2022-12-11T22:41:42.455Z,5.88
2022-12-11T22:44:48.085Z,6.18
2022-12-11T22:47:52.312Z,5.97
2022-12-11T22:50:55.692Z,6.50
2022-12-11T22:53:59.330Z,5.97
2022-12-11T22:57:05.072Z,5.82
2022-12-11T23:00:14.230Z,6.17
2022-12-11T23:03:17.457Z,5.65
2022-12-11T23:06:23.287Z,6.93
2022-12-11T23:09:26.834Z,7.35
2022-12-11T23:12:30.086Z,7.47
2022-12-11T23:15:33.304Z,8.45
2022-12-11T23:18:36.643Z,8.57
2022-12-11T23:21:40.226Z,9.03
2022-12-11T23:24:43.803Z,9.07
2022-12-11T23:27:46.982Z,9.15
2022-12-11T23:30:50.544Z,8.33
2022-12-11T23:33:54.531Z,8.68
2022-12-11T23:36:57.777Z,8.50
2022-12-11T23:40:01.165Z,9.20
2022-12-11T23:43:04.387Z,8.05
2022-12-11T23:46:19.925Z,9.63
2022-12-11T23:49:23.385Z,8.77
2022-12-11T23:52:26.672Z,9.67
2022-12-11T23:55:29.912Z,9.70
2022-12-11T23:58:35.576Z,10.45
